CEH8 weather

Évasion Hélicoptère Heliport
Montréal/Laval, Quebec, Canada

Public forecast

Using degrees Celsius for public forecast. Weather courtesy of forecast.io.

Closest aviation weather report (METAR) to Évasion Hélicoptère Heliport

Closest report is Montreal / Pierre Elliott Trudeau International Airport, 11.0 nm (20.4 km) SSW. Retrieved 2020/07/12 09:00 UTC (13 minutes ago):

CYUL 120900Z 26006KT 12SM FEW006 FEW100 BKN190 BKN250 22/21 A2946 RMK CF1AC1AC5CI1 CF TR AC TR CI TR SLP978 DENSITY ALT 1600FT

Closest aviation forecast (TAF) to Évasion Hélicoptère Heliport

Closest forecast is Montreal / Pierre Elliott Trudeau International Airport, 11.0 nm (20.4 km) SSW. Retrieved 2020/07/12 09:42 UTC (0 seconds ago):

TAF CYUL 120838Z 1209/1306 24010KT 5SM -SHRA BR BKN005 OVC050 TEMPO 1209/1213 P6SM NSW SCT005 OVC050 FM121300 28012G22KT P6SM OVC015 TEMPO 1213/1216 SCT015 BKN050 FM121600 29010G20KT P6SM BKN030 BECMG 1219/1221 26010G20KT FM130300 24010KT P6SM BKN030 RMK NXT FCST BY 121200Z